• Join FlightAware (Why Join?)
  • Login
  • US Flag 
04:53AM EDT


 

Airport Tracker/Info


-or-


 

Live Flight TrackerFlight Track Log ✈ EJM685 ✈ 02-Mar-2014 ✈ KTEB - KPBI

Flight Track Log - Related Links

Times and Time Zones

All times are in EST time to prevent confusion due to time zone crossing. See the EJM685 flight status page for this flight to view local times or setup timezone preferences in your user account.

Time Position Orientation Groundspeed Altitude Reporting Facility
EST Latitude Longitude Course Direction KTS MPH feet Rate Location/Type
11:19AM 40.8236 -74.1156 180° South 187 215 47,000  Level New York Center
11:21AM 40.8000 -74.2000 250° West 230 265 3,300 -19,920 Descending New York TRACON
11:22AM 40.7500 -74.2167 194° South 250 288 5,900 2,820 Climbing New York TRACON
11:24AM 40.5986 -74.2581 192° South 275 316 12,000 2,940 Climbing New York Center
11:25AM 40.2519 -74.1667 180° South  Level FlightAware Approximate
11:25AM 40.5039 -74.2586 180° South 358 412 15,100  Level New York Center
11:26AM 40.3992 -74.2036 158° South 399 459 16,900 1,200 Climbing New York Center
11:27AM 40.2911 -74.1681 166° South 402 463 17,700 1,740 Climbing New York Center
11:28AM 40.1917 -74.1958 192° South 367 422 20,500 2,760 Climbing New York Center
11:29AM 40.0864 -74.2275 193° South 387 445 23,400 1,680 Climbing New York Center
11:30AM 39.9647 -74.2922 202° Southwest 400 460 24,000 240 Climbing New York Center
11:31AM 39.8789 -74.3725 216° Southwest 381 438 24,000 540 Level New York Center
11:32AM 39.7953 -74.4589 218° Southwest 382 440 25,200 1,800 Climbing New York Center
11:33AM 39.7219 -74.5589 226° Southwest 381 438 27,800 2,400 Climbing New York Center
11:34AM 39.6456 -74.6608 226° Southwest 394 453 30,200 2,580 Climbing New York Center
11:35AM 39.5658 -74.7653 225° Southwest 406 467 33,100 3,000 Climbing New York Center
11:36AM 39.4864 -74.8700 226° Southwest 393 452 36,400 2,580 Climbing New York Center
11:37AM 39.4108 -74.9681 225° Southwest 386 444 38,500 2,280 Climbing New York Center
11:38AM 39.3644 -75.0289 225° Southwest 387 445 39,900 1,620 Climbing Washington Center
11:39AM 39.2806 -75.1181 219° Southwest 407 468 41,000 1,200 Climbing Washington Center
11:40AM 39.1658 -75.1681 199° South 439 505 42,400 1,320 Climbing Washington Center
11:41AM 39.0514 -75.2147 198° South 433 498 43,800 1,260 Climbing Washington Center
11:42AM 38.9369 -75.2636 198° South 433 498 45,100 1,080 Climbing Washington Center
11:43AM 38.8253 -75.3086 197° South 426 490 46,100 840 Climbing Washington Center
11:44AM 38.6903 -75.3656 198° South 425 489 46,800 420 Climbing Washington Center
11:45AM 38.5789 -75.4103 197° South 423 487 47,000 60 Climbing Washington Center
11:46AM 38.4653 -75.4567 198° South 425 489 47,000  Level Washington Center
11:47AM 38.3528 -75.5067 199° South 426 490 47,000  Level Washington Center
11:48AM 38.2222 -75.5667 200° South 426 490 47,000  Level Washington Center
11:49AM 38.1114 -75.6175 200° South 426 490 47,000  Level Washington Center
11:50AM 38.0078 -75.6675 201° Southwest 426 490 47,000  Level Washington Center
11:51AM 37.8986 -75.7153 199° South 421 484 47,000  Level Washington Center
11:52AM 37.7892 -75.7656 200° South 420 483 47,000  Level Washington Center
11:53AM 37.6550 -75.8261 200° South 423 487 47,000  Level Washington Center
11:54AM 37.5461 -75.8753 200° South 422 486 47,000  Level Washington Center
11:55AM 37.4361 -75.9239 199° South 420 483 47,000  Level Washington Center
11:56AM 37.3253 -75.9725 199° South 420 483 47,000  Level Washington Center
11:57AM 37.2175 -76.0214 200° South 418 481 47,000  Level Washington Center
11:58AM 37.0856 -76.0797 199° South 419 482 47,000  Level Washington Center
11:59AM 36.9683 -76.1319 200° South 419 482 47,000  Level Washington Center
12:00PM 36.8578 -76.1792 199° South 420 483 47,000  Level Washington Center
12:01PM 36.7475 -76.2261 199° South 421 484 47,000  Level Washington Center
12:02PM 36.6278 -76.2792 200° South 422 486 47,000  Level Washington Center
12:03PM 36.5181 -76.3267 199° South 420 483 47,000  Level Washington Center
12:04PM 36.4078 -76.3747 199° South 421 484 47,000  Level Washington Center
12:05PM 36.2961 -76.4219 199° South 423 487 47,000  Level Washington Center
12:06PM 36.1858 -76.4706 200° South 421 484 47,000  Level Washington Center
12:08PM 36.0522 -76.5269 199° South 422 486 47,000  Level Washington Center
12:09PM 35.9414 -76.5747 199° South 422 486 47,000  Level Washington Center
12:10PM 35.8289 -76.6214 199° South 423 487 47,000  Level Washington Center
12:11PM 35.7178 -76.6689 199° South 423 487 47,000  Level Washington Center
12:12PM 35.6061 -76.7175 199° South 424 488 47,000  Level Washington Center
12:13PM 35.4925 -76.7642 198° South 426 490 47,000  Level Washington Center
12:14PM 35.3572 -76.8203 199° South 434 499 47,000  Level Washington Center
12:15PM 35.2447 -76.8683 199° South 433 498 47,000  Level Washington Center
12:16PM 35.1317 -76.9169 199° South 432 497 47,000  Level Washington Center
12:17PM 35.0039 -76.9697 199° South 432 497 47,000  Level Washington Center
12:18PM 34.8911 -77.0167 199° South 431 496 47,000  Level Washington Center
12:19PM 34.7769 -77.0636 199° South 431 496 47,000  Level Washington Center
12:20PM 34.6628 -77.1106 199° South 431 496 47,000  Level Washington Center
12:21PM 34.5483 -77.1583 199° South 431 496 47,000  Level Washington Center
12:22PM 34.4333 -77.2072 199° South 434 499 47,000  Level Washington Center
12:23PM 34.2958 -77.2625 198° South 434 499 47,000  Level Washington Center
12:24PM 34.1794 -77.3094 198° South 434 499 47,000  Level Washington Center
12:25PM 34.0639 -77.3567 199° South 435 501 47,000  Level Washington Center
12:26PM 33.9464 -77.4039 198° South 436 502 47,000  Level Washington Center
12:27PM 33.8286 -77.4517 199° South 438 504 47,000  Level Washington Center
12:28PM 33.7331 -77.4886 198° South 461 531 47,000  Level Jacksonville Center
12:29PM 33.6061 -77.5414 199° South 455 524 47,000  Level Jacksonville Center
12:30PM 33.4869 -77.5883 198° South 455 524 47,000  Level Jacksonville Center
12:31PM 33.3681 -77.6378 199° South 455 524 47,000  Level Jacksonville Center
12:32PM 33.2489 -77.6819 197° South 455 524 47,000  Level Jacksonville Center
12:33PM 33.1319 -77.7311 199° South 455 524 47,000  Level Jacksonville Center
12:34PM 33.0128 -77.7775 198° South 455 524 47,000  Level Jacksonville Center
12:35PM 32.8936 -77.8239 198° South 455 524 47,000  Level Jacksonville Center
12:36PM 32.7767 -77.8700 198° South 455 524 47,000  Level Jacksonville Center
12:37PM 32.6553 -77.9161 198° South 455 524 47,000  Level Jacksonville Center
12:38PM 32.5361 -77.9647 199° South 455 524 47,000  Level Jacksonville Center
12:39PM 32.4169 -78.0128 199° South 455 524 47,000  Level Jacksonville Center
12:40PM 32.2997 -78.0561 197° South 455 524 47,000  Level Jacksonville Center
12:41PM 32.1803 -78.1017 198° South 455 524 47,000  Level Jacksonville Center
12:42PM 32.0653 -78.1517 200° South 450 518 47,000  Level Jacksonville Center
12:43PM 31.9478 -78.1944 197° South 450 518 47,000  Level Jacksonville Center
12:44PM 31.8286 -78.2422 199° South 450 518 47,000  Level Jacksonville Center
12:45PM 31.7236 -78.2817 198° South 450 518 47,000  Level Jacksonville Center
12:46PM 31.6000 -78.3292 198° South 445 512 47,000  Level Jacksonville Center
12:47PM 31.4828 -78.3764 199° South 438 504 47,000  Level Jacksonville Center
12:48PM 31.3653 -78.4186 197° South 438 504 47,000  Level Jacksonville Center
12:49PM 31.2500 -78.4628 198° South 438 504 47,000  Level Jacksonville Center
12:50PM 31.1325 -78.5097 199° South 438 504 47,000  Level Jacksonville Center
12:51PM 31.0172 -78.5514 197° South 438 504 47,000  Level Jacksonville Center
12:52PM 30.8997 -78.5978 199° South 438 504 47,000  Level Jacksonville Center
12:53PM 30.7822 -78.6419 198° South 438 504 47,000  Level Jacksonville Center
12:55PM 30.5517 -78.7267 198° South 462 532 47,000  Level Miami Center
12:56PM 30.4281 -78.7678 196° South 462 532 47,000  Level Miami Center
12:57PM 30.3128 -78.8114 198° South 455 524 47,000  Level Miami Center
12:58PM 30.1956 -78.8550 198° South 450 518 47,000  Level Miami Center
12:59PM 30.0739 -78.8958 196° South 450 518 47,000  Level Miami Center
01:00PM 29.9564 -78.9533 203° Southwest 442 509 47,000  Level Miami Center
01:01PM 29.8350 -78.9917 195° South 442 509 47,000 -60 Level Miami Center
01:02PM 29.7094 -79.0131 188° South 448 516 46,900 -480 Descending Miami Center
01:03PM 29.5842 -79.0344 188° South 453 521 46,100 -1,200 Descending Miami Center
01:04PM 29.4856 -79.0586 192° South 458 527 44,600 -1,800 Descending Miami Center
01:05PM 29.3331 -79.0842 188° South 464 534 42,500 -1,980 Descending Miami Center
01:06PM 29.2075 -79.1056 188° South 464 534 40,700 -1,800 Descending Miami Center
01:07PM 29.0778 -79.1289 189° South 469 540 38,900 -1,860 Descending Miami Center
01:08PM 28.9458 -79.1547 190° South 477 549 37,000 -1,920 Descending Miami Center
01:09PM 28.8078 -79.1778 188° South 488 562 35,100 -1,920 Descending Miami Center
01:10PM 28.6739 -79.2036 190° South 493 567 33,200 -1,980 Descending Miami Center
01:11PM 28.5378 -79.2267 188° South 493 567 31,200 -1,920 Descending Miami Center
01:12PM 28.4058 -79.2497 189° South 485 558 29,400 -1,800 Descending Miami Center
01:13PM 28.2783 -79.2731 189° South 485 558 27,600 -1,860 Descending Miami Center
01:14PM 28.1506 -79.2964 189° South 479 551 25,700 -1,800 Descending Miami Center
01:15PM 28.0247 -79.3217 190° South 474 545 24,000 -1,680 Descending Miami Center
01:16PM 27.9014 -79.3425 188° South 462 532 22,400 -1,620 Descending Miami Center
01:17PM 27.7986 -79.3614 189° South 448 516 20,800 -1,800 Descending Miami Center
01:18PM 27.6731 -79.3822 188° South 419 482 18,800 -1,860 Descending Miami Center
01:19PM 27.5600 -79.4031 189° South 408 470 17,100 -1,680 Descending Miami Center
01:20PM 27.4608 -79.4500 203° Southwest 401 461 15,500 -1,620 Descending Miami Center
01:21PM 27.4011 -79.5331 231° Southwest 376 433 13,900 -1,680 Descending Miami Center
01:22PM 27.3281 -79.6294 230° Southwest 376 433 12,200 -1,800 Descending Miami Center
01:23PM 27.2703 -79.7097 231° Southwest 354 407 10,300 -1,860 Descending Miami Center
01:24PM 27.2125 -79.7831 228° Southwest 329 379 8,500 -1,200 Descending Miami Center
01:25PM 27.1672 -79.8450 231° Southwest 300 345 8,000 -360 Descending Miami Center
01:26PM 27.1056 -79.8994 218° Southwest 283 326 7,800 -1,080 Descending Miami Center
01:27PM 27.0294 -79.9394 205° Southwest 283 326 5,900 -1,440 Descending Miami Center
01:28PM 26.9661 -79.9775 208° Southwest 278 320 5,000 -540 Descending Miami Center
01:29PM 26.9150 -80.0203 217° Southwest 246 283 4,900 -420 Descending Miami Center
01:30PM 26.8706 -80.0539 214° Southwest 230 265 4,200 -720 Descending Miami Center
01:32PM 26.7942 -80.1982 265° West  Level FlightAware Approximate
01:39PM 26.6832 -80.0956 110° East  Level Estimated
01:40PM 26.6832 -80.0956 110° East  Level Estimated
01:41PM 26.6832 -80.0956 110° East  Level Estimated
01:42PM 26.6832 -80.0956 110° East  Level Estimated
01:43PM 26.6832 -80.0956 110° East  Level Estimated
01:44PM 26.6832 -80.0956 110° East  Level Estimated
01:45PM 26.6832 -80.0956 110° East  Level Estimated
01:46PM 26.6832 -80.0956 110° East  Level Estimated
01:47PM 26.6832 -80.0956 110° East  Level Estimated
01:48PM 26.6832 -80.0956 110° East  Level Estimated
01:49PM 26.6832 -80.0956 110° East  Level Estimated
01:50PM 26.6832 -80.0956 110° East  Level Estimated
01:51PM 26.6832 -80.0956 110° East  Level Estimated